createdAt,value
2023-03-13T00:01:24.495Z,29.43
2023-03-13T00:03:53.157Z,30.87
2023-03-13T00:06:20.363Z,33.57
2023-03-13T00:08:48.029Z,33.17
2023-03-13T00:11:16.124Z,31.87
2023-03-13T00:13:44.491Z,35.33
2023-03-13T00:16:14.925Z,37.33
2023-03-13T00:18:51.440Z,32.90
2023-03-13T00:21:21.926Z,37.67
2023-03-13T00:23:50.027Z,33.43
2023-03-13T00:26:22.258Z,35.73
2023-03-13T00:28:51.118Z,33.97
2023-03-13T00:31:32.053Z,34.03
2023-03-13T00:34:02.805Z,36.30
2023-03-13T00:36:34.161Z,34.70
2023-03-13T00:39:02.201Z,33.53
2023-03-13T00:41:32.883Z,39.30
2023-03-13T00:44:00.177Z,37.47
2023-03-13T00:46:29.739Z,35.07
2023-03-13T00:48:57.898Z,39.80
2023-03-13T00:51:27.604Z,39.37
2023-03-13T00:54:00.230Z,30.97
2023-03-13T00:56:28.506Z,35.03
2023-03-13T00:58:55.557Z,35.27
2023-03-13T01:01:26.136Z,31.73
2023-03-13T01:03:56.925Z,31.10
2023-03-13T01:06:28.613Z,30.27
2023-03-13T01:08:56.505Z,30.37
2023-03-13T01:11:28.170Z,28.37
2023-03-13T01:13:57.921Z,32.90
2023-03-13T01:16:26.880Z,33.57
2023-03-13T01:18:57.314Z,31.40
2023-03-13T01:21:25.797Z,37.63
2023-03-13T01:23:54.305Z,31.37
2023-03-13T01:26:22.596Z,36.83
2023-03-13T01:28:49.780Z,34.83
2023-03-13T01:31:33.224Z,29.77
2023-03-13T01:34:03.474Z,33.63
2023-03-13T01:36:31.794Z,28.80
2023-03-13T01:39:01.091Z,28.13
2023-03-13T01:41:31.056Z,34.63
2023-03-13T01:43:58.956Z,33.83
2023-03-13T01:46:28.879Z,29.40
2023-03-13T01:49:16.047Z,31.20
2023-03-13T01:51:53.513Z,31.87
2023-03-13T01:54:30.108Z,30.97
2023-03-13T01:57:04.168Z,28.87
2023-03-13T01:59:36.350Z,30.50
2023-03-13T02:02:05.306Z,32.53
2023-03-13T02:04:41.380Z,30.37
2023-03-13T02:07:15.708Z,31.73
2023-03-13T02:09:48.840Z,33.50
2023-03-13T02:12:22.529Z,35.23
2023-03-13T02:14:51.041Z,29.63
2023-03-13T02:17:18.547Z,27.90
2023-03-13T02:19:49.988Z,31.03
2023-03-13T02:22:34.287Z,31.40
2023-03-13T02:25:25.798Z,27.20
2023-03-13T02:28:05.545Z,27.27
2023-03-13T02:30:34.629Z,33.70
2023-03-13T02:33:03.626Z,28.20
2023-03-13T02:35:32.770Z,31.10
2023-03-13T02:38:07.447Z,30.27
2023-03-13T02:40:40.381Z,30.67
2023-03-13T02:43:15.145Z,29.83
2023-03-13T02:45:42.199Z,30.50
2023-03-13T02:48:09.297Z,27.40
2023-03-13T02:50:38.372Z,27.77
2023-03-13T02:53:08.191Z,30.37
2023-03-13T02:55:40.928Z,30.23
2023-03-13T02:58:08.526Z,31.47
2023-03-13T03:00:35.931Z,30.10
2023-03-13T03:03:02.899Z,30.27
2023-03-13T03:05:29.978Z,28.53
2023-03-13T03:07:57.038Z,26.67
2023-03-13T03:10:24.038Z,34.37
2023-03-13T03:12:51.057Z,29.23
2023-03-13T03:15:18.280Z,30.60
2023-03-13T03:17:45.251Z,26.63
2023-03-13T03:20:12.737Z,29.83
2023-03-13T03:22:43.552Z,29.60
2023-03-13T03:25:10.915Z,31.10
2023-03-13T03:27:37.934Z,27.60
2023-03-13T03:30:06.844Z,31.63
2023-03-13T03:32:33.994Z,30.80
2023-03-13T03:35:01.065Z,25.10
2023-03-13T03:37:28.084Z,30.87
2023-03-13T03:39:55.025Z,32.23
2023-03-13T03:42:21.962Z,31.37
2023-03-13T03:44:48.958Z,31.70
2023-03-13T03:47:16.023Z,29.77
2023-03-13T03:49:43.133Z,30.27
2023-03-13T03:52:10.125Z,33.40
2023-03-13T03:54:36.999Z,31.93
2023-03-13T03:57:04.118Z,29.53
2023-03-13T03:59:31.112Z,30.17
2023-03-13T04:01:58.499Z,32.47
2023-03-13T04:04:25.579Z,32.30
2023-03-13T04:06:52.506Z,33.23
2023-03-13T04:09:19.589Z,35.73
2023-03-13T04:11:47.001Z,39.50
2023-03-13T04:14:13.953Z,36.53
2023-03-13T04:16:40.929Z,39.33
2023-03-13T04:19:08.026Z,38.50
2023-03-13T04:21:35.177Z,38.07
2023-03-13T04:24:02.162Z,36.40
2023-03-13T04:26:29.088Z,35.10
2023-03-13T04:28:56.362Z,33.60
2023-03-13T04:31:23.700Z,33.27
2023-03-13T04:33:50.662Z,36.57
2023-03-13T04:36:17.714Z,34.30
2023-03-13T04:38:44.626Z,39.70
2023-03-13T04:41:11.562Z,38.20
2023-03-13T04:43:38.581Z,39.83
2023-03-13T04:46:05.717Z,39.57
2023-03-13T04:48:32.920Z,34.07
2023-03-13T04:50:59.938Z,40.67
2023-03-13T04:53:26.983Z,39.73
2023-03-13T04:55:54.007Z,38.87
2023-03-13T04:58:21.099Z,37.93
2023-03-13T05:00:48.205Z,35.77
2023-03-13T05:03:15.244Z,33.17
2023-03-13T05:05:42.111Z,43.23
2023-03-13T05:08:11.031Z,40.53
2023-03-13T05:10:38.030Z,37.63
2023-03-13T05:13:05.124Z,44.43
2023-03-13T05:15:32.183Z,52.70
2023-03-13T05:17:59.222Z,39.93
2023-03-13T05:20:26.408Z,45.00
2023-03-13T05:22:53.577Z,50.40
2023-03-13T05:25:20.690Z,46.00
2023-03-13T05:27:47.698Z,41.60
2023-03-13T05:30:14.777Z,48.67
2023-03-13T05:32:41.965Z,49.33
2023-03-13T05:35:09.257Z,52.20
2023-03-13T05:37:36.407Z,47.03
2023-03-13T05:40:04.685Z,53.30
2023-03-13T05:42:32.065Z,46.03
2023-03-13T05:44:58.982Z,50.50
2023-03-13T05:47:25.944Z,50.50
2023-03-13T05:49:52.845Z,46.23
2023-03-13T05:52:19.848Z,58.43
2023-03-13T05:54:46.825Z,45.70
2023-03-13T05:57:14.185Z,42.60
2023-03-13T05:59:41.214Z,40.67
2023-03-13T06:02:08.154Z,41.80
2023-03-13T06:04:36.248Z,51.77
2023-03-13T06:07:03.405Z,48.10
2023-03-13T06:09:30.416Z,51.53
2023-03-13T06:11:57.409Z,48.80
2023-03-13T06:14:25.232Z,53.77
2023-03-13T06:16:55.195Z,46.77
2023-03-13T06:19:24.588Z,54.53
2023-03-13T06:21:52.821Z,52.53
2023-03-13T06:24:19.793Z,51.33
2023-03-13T06:26:50.516Z,52.93
2023-03-13T06:29:18.358Z,50.17
2023-03-13T06:31:45.641Z,62.43
2023-03-13T06:34:14.331Z,52.60
2023-03-13T06:36:41.432Z,59.53
2023-03-13T06:39:08.523Z,49.07
2023-03-13T06:41:36.417Z,62.70
2023-03-13T06:44:04.210Z,59.53
2023-03-13T06:46:32.042Z,52.93
2023-03-13T06:49:01.044Z,55.20
2023-03-13T06:51:28.031Z,61.43
2023-03-13T06:53:55.059Z,54.40
2023-03-13T06:56:22.519Z,55.50
2023-03-13T06:58:50.305Z,61.77
2023-03-13T07:01:18.932Z,55.97
2023-03-13T07:03:49.087Z,64.90
2023-03-13T07:06:17.214Z,63.37
2023-03-13T07:08:45.156Z,63.33
2023-03-13T07:11:16.009Z,97.57
2023-03-13T07:13:43.498Z,77.07
2023-03-13T07:16:13.658Z,64.53
2023-03-13T07:18:45.131Z,64.93
2023-03-13T07:21:13.639Z,59.73
2023-03-13T07:23:40.961Z,63.17
2023-03-13T07:26:15.277Z,71.47
2023-03-13T07:28:42.912Z,56.00
2023-03-13T07:31:16.816Z,58.33
2023-03-13T07:33:47.730Z,60.20
2023-03-13T07:36:16.359Z,58.47
2023-03-13T07:38:44.186Z,61.00
2023-03-13T07:41:13.837Z,50.37
2023-03-13T07:43:41.616Z,51.60
2023-03-13T07:46:12.950Z,47.27
2023-03-13T07:48:42.908Z,58.53
2023-03-13T07:51:25.258Z,53.63
2023-03-13T07:53:57.384Z,53.90
2023-03-13T07:56:25.217Z,53.70
2023-03-13T07:58:52.322Z,44.97
2023-03-13T08:01:26.043Z,49.07
2023-03-13T08:03:56.049Z,44.47
2023-03-13T08:06:25.729Z,46.50
2023-03-13T08:08:57.349Z,38.43
2023-03-13T08:11:26.642Z,42.50
2023-03-13T08:13:56.662Z,46.33
2023-03-13T08:16:31.008Z,37.77
2023-03-13T08:18:59.334Z,38.63
2023-03-13T08:21:35.784Z,36.53
2023-03-13T08:24:07.400Z,40.07
2023-03-13T08:26:37.478Z,34.03
2023-03-13T08:29:12.504Z,33.50
2023-03-13T08:31:48.516Z,35.97
2023-03-13T08:34:17.602Z,36.77
2023-03-13T08:36:45.099Z,35.10
2023-03-13T08:39:20.728Z,33.77
2023-03-13T08:41:47.949Z,30.23
2023-03-13T08:44:20.214Z,34.03
2023-03-13T08:46:49.415Z,39.90
2023-03-13T08:49:18.041Z,27.73
2023-03-13T08:51:45.552Z,30.97
2023-03-13T08:54:12.609Z,31.57
2023-03-13T08:56:41.254Z,32.53
2023-03-13T08:59:08.359Z,28.47
2023-03-13T09:01:38.510Z,27.67
2023-03-13T09:04:06.776Z,26.53
2023-03-13T09:06:36.100Z,24.50
2023-03-13T09:09:04.413Z,22.40
2023-03-13T09:11:32.410Z,25.37
2023-03-13T09:13:59.529Z,23.10
2023-03-13T09:16:30.224Z,24.40
2023-03-13T09:18:58.936Z,21.60
2023-03-13T09:21:35.284Z,24.93
2023-03-13T09:24:03.180Z,26.13
2023-03-13T09:26:30.538Z,20.20
2023-03-13T09:28:58.844Z,26.33
2023-03-13T09:31:30.480Z,21.50
2023-03-13T09:33:57.808Z,21.80
2023-03-13T09:36:25.856Z,23.83
2023-03-13T09:38:56.378Z,22.20
2023-03-13T09:41:42.255Z,20.17
2023-03-13T09:44:17.952Z,19.23
2023-03-13T09:46:54.174Z,18.63
2023-03-13T09:49:48.246Z,18.93
2023-03-13T09:52:19.087Z,21.80
2023-03-13T09:55:03.809Z,24.47
2023-03-13T09:58:14.134Z,22.83
2023-03-13T10:00:44.879Z,21.63
2023-03-13T10:03:11.960Z,22.17
2023-03-13T10:06:02.803Z,26.23
2023-03-13T10:08:34.998Z,20.63
2023-03-13T10:11:12.115Z,20.20
2023-03-13T10:14:10.879Z,22.03
2023-03-13T10:16:50.521Z,17.70
2023-03-13T10:19:32.671Z,17.77
2023-03-13T10:22:04.871Z,22.50
2023-03-13T10:25:04.229Z,28.30
2023-03-13T10:27:31.296Z,19.40
2023-03-13T10:29:58.252Z,23.77
2023-03-13T10:32:25.202Z,17.93
2023-03-13T10:35:01.086Z,19.70
2023-03-13T10:37:43.742Z,20.87
2023-03-13T10:40:29.898Z,18.90
2023-03-13T10:43:23.090Z,18.23
2023-03-13T10:45:50.043Z,16.80
2023-03-13T10:48:24.461Z,17.27
2023-03-13T10:50:57.882Z,21.23
2023-03-13T10:53:34.267Z,15.80
2023-03-13T10:56:13.657Z,17.90
2023-03-13T10:58:50.425Z,18.50
2023-03-13T11:01:26.378Z,21.80
2023-03-13T11:03:57.167Z,16.20
2023-03-13T11:06:36.741Z,24.13
2023-03-13T11:09:03.794Z,14.17
2023-03-13T11:11:31.402Z,16.47
2023-03-13T11:14:17.678Z,16.20
2023-03-13T11:16:51.075Z,16.17
2023-03-13T11:20:23.032Z,14.73
2023-03-13T11:23:22.754Z,14.97
2023-03-13T11:26:08.516Z,18.17
2023-03-13T11:29:06.855Z,14.97
2023-03-13T11:31:42.528Z,15.80
2023-03-13T11:34:48.840Z,15.50
2023-03-13T11:37:19.728Z,13.70
2023-03-13T11:40:08.493Z,16.33
2023-03-13T11:42:41.558Z,20.57
2023-03-13T11:45:30.394Z,16.17
2023-03-13T11:48:41.576Z,13.90
2023-03-13T11:51:54.701Z,15.63
2023-03-13T11:55:35.057Z,18.10
2023-03-13T11:58:19.948Z,14.63
2023-03-13T12:01:08.386Z,12.90
2023-03-13T12:04:23.405Z,14.20
2023-03-13T12:07:21.328Z,15.17
2023-03-13T12:10:06.167Z,18.93
2023-03-13T12:13:08.284Z,15.93
2023-03-13T12:15:42.976Z,11.33
2023-03-13T12:18:40.664Z,14.10
2023-03-13T12:21:41.878Z,13.70
2023-03-13T12:24:34.204Z,12.30
2023-03-13T12:27:11.936Z,17.27
2023-03-13T12:30:36.272Z,14.77
2023-03-13T12:33:21.777Z,16.00
2023-03-13T12:36:06.540Z,15.40
2023-03-13T12:38:48.694Z,19.33
2023-03-13T12:41:48.406Z,15.50
2023-03-13T12:44:20.144Z,13.63
2023-03-13T12:47:08.849Z,13.87
2023-03-13T12:50:00.695Z,14.30
2023-03-13T12:53:01.323Z,13.83
2023-03-13T12:55:58.761Z,12.83
2023-03-13T12:58:51.461Z,14.80
2023-03-13T13:01:24.437Z,14.20
2023-03-13T13:04:06.235Z,15.47
2023-03-13T13:07:19.728Z,12.00
2023-03-13T13:10:11.248Z,14.63
2023-03-13T13:12:41.760Z,12.57
2023-03-13T13:15:14.723Z,14.00
2023-03-13T13:18:00.894Z,10.70
2023-03-13T13:20:35.431Z,11.77
2023-03-13T13:23:26.772Z,11.43
2023-03-13T13:25:56.915Z,11.63
2023-03-13T13:28:34.808Z,10.53
2023-03-13T13:31:02.401Z,10.07
2023-03-13T13:33:31.137Z,9.60
2023-03-13T13:36:10.556Z,11.40
2023-03-13T13:38:47.953Z,10.70
2023-03-13T13:41:23.629Z,12.50
2023-03-13T13:44:25.432Z,10.70
2023-03-13T13:46:54.329Z,10.70
2023-03-13T13:49:29.463Z,10.47
2023-03-13T13:52:02.531Z,9.57
2023-03-13T13:54:47.223Z,9.10
2023-03-13T13:57:35.912Z,10.47
2023-03-13T14:00:41.626Z,9.77
2023-03-13T14:03:26.136Z,15.63
2023-03-13T14:06:00.037Z,8.40
2023-03-13T14:08:32.073Z,8.63
2023-03-13T14:11:31.759Z,9.07
2023-03-13T14:14:21.239Z,9.00
2023-03-13T14:16:53.433Z,9.17
2023-03-13T14:19:24.564Z,13.10
2023-03-13T14:21:51.839Z,9.33
2023-03-13T14:24:18.927Z,8.20
2023-03-13T14:26:46.160Z,11.90
2023-03-13T14:29:20.838Z,13.20
2023-03-13T14:32:00.629Z,14.27
2023-03-13T14:34:31.511Z,16.30
2023-03-13T14:37:17.382Z,9.50
2023-03-13T14:39:49.384Z,7.83
2023-03-13T14:42:18.878Z,8.60
2023-03-13T14:44:49.850Z,10.07
2023-03-13T14:47:26.938Z,6.60
2023-03-13T14:50:24.537Z,6.40
2023-03-13T14:53:05.548Z,6.37
2023-03-13T14:55:36.842Z,7.57
2023-03-13T14:58:25.391Z,4.90
2023-03-13T15:00:52.627Z,5.37
2023-03-13T15:03:24.882Z,7.03
2023-03-13T15:06:10.468Z,5.27
2023-03-13T15:08:45.627Z,3.73
2023-03-13T15:11:28.407Z,6.30
2023-03-13T15:13:57.092Z,4.70
2023-03-13T15:16:25.776Z,7.67
2023-03-13T15:18:54.545Z,4.77
2023-03-13T15:21:31.000Z,4.30
2023-03-13T15:24:12.723Z,5.00
2023-03-13T15:26:41.611Z,10.23
2023-03-13T15:29:11.258Z,5.23
2023-03-13T15:31:40.118Z,9.90
2023-03-13T15:34:13.380Z,10.20
2023-03-13T15:36:42.827Z,4.90
2023-03-13T15:39:19.565Z,6.73
2023-03-13T15:41:46.768Z,9.80
2023-03-13T15:44:13.882Z,7.30
2023-03-13T15:46:40.882Z,6.50
2023-03-13T15:49:13.190Z,5.07
2023-03-13T15:51:40.314Z,5.67
2023-03-13T15:54:07.361Z,5.90
2023-03-13T15:56:37.800Z,8.00
2023-03-13T15:59:16.680Z,5.57
2023-03-13T16:01:45.316Z,8.10
2023-03-13T16:04:21.677Z,7.97
2023-03-13T16:06:48.677Z,5.50
2023-03-13T16:09:17.677Z,6.47
2023-03-13T16:11:46.152Z,5.97
2023-03-13T16:14:13.237Z,5.60
2023-03-13T16:16:40.281Z,9.03
2023-03-13T16:19:09.921Z,7.13
2023-03-13T16:21:40.678Z,5.90
2023-03-13T16:24:07.720Z,9.33
2023-03-13T16:26:34.757Z,9.73
2023-03-13T16:29:01.970Z,9.63
2023-03-13T16:31:32.732Z,8.27
2023-03-13T16:34:02.502Z,8.03
2023-03-13T16:36:33.447Z,8.03
2023-03-13T16:39:09.377Z,7.20
2023-03-13T16:41:36.430Z,7.47
2023-03-13T16:44:04.408Z,6.33
2023-03-13T16:46:59.207Z,9.63
2023-03-13T16:49:31.670Z,13.23
2023-03-13T16:51:58.638Z,7.30
2023-03-13T16:54:26.063Z,10.77
2023-03-13T16:56:53.187Z,7.00
2023-03-13T16:59:20.362Z,5.80
2023-03-13T17:01:48.336Z,7.70
2023-03-13T17:04:15.383Z,7.17
2023-03-13T17:06:45.003Z,6.77
2023-03-13T17:09:17.665Z,7.67
2023-03-13T17:11:45.477Z,7.00
2023-03-13T17:14:13.682Z,7.87
2023-03-13T17:16:44.634Z,7.13
2023-03-13T17:19:17.245Z,6.80
2023-03-13T17:21:44.378Z,6.30
2023-03-13T17:24:11.478Z,7.07
2023-03-13T17:26:40.276Z,8.23
2023-03-13T17:29:08.835Z,6.97
2023-03-13T17:31:39.942Z,6.40
2023-03-13T17:34:08.929Z,6.40
2023-03-13T17:36:36.995Z,7.03
2023-03-13T17:39:09.158Z,7.53
2023-03-13T17:41:36.629Z,6.67
2023-03-13T17:44:04.040Z,7.23
2023-03-13T17:46:36.978Z,6.23
2023-03-13T17:49:04.579Z,6.17
2023-03-13T17:51:35.280Z,5.80
2023-03-13T17:54:04.773Z,6.63
2023-03-13T17:56:38.975Z,6.07
2023-03-13T17:59:12.059Z,7.63
2023-03-13T18:01:39.300Z,9.60
2023-03-13T18:04:06.820Z,8.37
2023-03-13T18:06:43.941Z,8.00
2023-03-13T18:09:18.056Z,9.37
2023-03-13T18:11:45.745Z,6.40
2023-03-13T18:14:13.335Z,6.97
2023-03-13T18:16:50.583Z,12.50
2023-03-13T18:19:22.707Z,8.20
2023-03-13T18:21:54.621Z,7.53
2023-03-13T18:24:22.396Z,7.23
2023-03-13T18:26:50.922Z,7.57
2023-03-13T18:29:27.017Z,6.73
2023-03-13T18:31:56.213Z,7.37
2023-03-13T18:34:25.288Z,8.07
2023-03-13T18:36:54.125Z,14.20
2023-03-13T18:39:22.020Z,7.53
2023-03-13T18:41:50.176Z,9.17
2023-03-13T18:44:19.103Z,7.80
2023-03-13T18:46:46.274Z,8.33
2023-03-13T18:49:22.525Z,10.47
2023-03-13T18:51:51.422Z,19.23
2023-03-13T18:54:19.231Z,13.73
2023-03-13T18:56:48.003Z,12.00
2023-03-13T18:59:21.039Z,12.33
2023-03-13T19:01:49.346Z,10.87
2023-03-13T19:04:19.383Z,19.00
2023-03-13T19:06:48.374Z,11.40
2023-03-13T19:09:42.112Z,9.90
2023-03-13T19:12:10.476Z,14.97
2023-03-13T19:14:37.857Z,9.77
2023-03-13T19:17:07.349Z,13.73
2023-03-13T19:19:34.658Z,12.70
2023-03-13T19:22:03.298Z,12.17
2023-03-13T19:24:31.688Z,12.87
2023-03-13T19:26:59.206Z,12.47
2023-03-13T19:29:29.137Z,16.37
2023-03-13T19:31:56.767Z,15.37
2023-03-13T19:34:24.136Z,15.33
2023-03-13T19:36:53.472Z,22.50
2023-03-13T19:39:26.420Z,15.63
2023-03-13T19:41:57.111Z,16.90
2023-03-13T19:44:25.564Z,18.47
2023-03-13T19:46:55.070Z,20.47
2023-03-13T19:49:22.560Z,18.37
2023-03-13T19:51:49.965Z,18.50
2023-03-13T19:54:18.037Z,18.17
2023-03-13T19:56:49.111Z,19.70
2023-03-13T19:59:19.960Z,18.50
2023-03-13T20:01:48.429Z,18.73
2023-03-13T20:04:17.683Z,15.87
2023-03-13T20:06:46.354Z,17.40
2023-03-13T20:09:16.850Z,20.70
2023-03-13T20:11:47.603Z,25.03
2023-03-13T20:14:15.536Z,22.77
2023-03-13T20:16:45.719Z,24.13
2023-03-13T20:19:13.985Z,19.67
2023-03-13T20:21:42.915Z,23.30
2023-03-13T20:24:11.067Z,22.97
2023-03-13T20:26:38.945Z,21.97
2023-03-13T20:29:06.505Z,21.60
2023-03-13T20:31:33.554Z,19.43
2023-03-13T20:34:00.882Z,16.43
2023-03-13T20:36:29.189Z,15.37
2023-03-13T20:38:57.265Z,18.60
2023-03-13T20:41:31.403Z,15.20
2023-03-13T20:43:58.628Z,17.57
2023-03-13T20:46:27.099Z,14.00
2023-03-13T20:48:54.970Z,13.53
2023-03-13T20:51:22.450Z,17.90
2023-03-13T20:53:50.100Z,13.60
2023-03-13T20:56:17.832Z,13.87
2023-03-13T20:58:45.297Z,17.30
2023-03-13T21:01:12.918Z,15.80
2023-03-13T21:03:39.968Z,18.83
2023-03-13T21:06:18.210Z,14.30
2023-03-13T21:08:47.259Z,14.23
2023-03-13T21:11:21.456Z,16.67
2023-03-13T21:13:49.088Z,15.40
2023-03-13T21:16:18.642Z,15.13
2023-03-13T21:18:47.013Z,14.37
2023-03-13T21:21:19.926Z,13.63
2023-03-13T21:23:47.652Z,15.70
2023-03-13T21:26:15.942Z,13.60
2023-03-13T21:28:43.026Z,13.47
2023-03-13T21:31:14.165Z,15.33
2023-03-13T21:33:43.064Z,16.10
2023-03-13T21:36:12.555Z,19.13
2023-03-13T21:38:40.053Z,14.73
2023-03-13T21:41:13.459Z,14.97
2023-03-13T21:43:42.761Z,15.90
2023-03-13T21:46:16.627Z,15.67
2023-03-13T21:51:12.831Z,26.80
2023-03-13T21:53:42.194Z,22.10
2023-03-13T21:56:15.853Z,18.27
2023-03-13T21:58:45.530Z,21.20
2023-03-13T22:01:14.204Z,16.37
2023-03-13T22:03:41.601Z,13.47
2023-03-13T22:06:18.360Z,13.37
2023-03-13T22:08:47.234Z,14.30
2023-03-13T22:11:15.693Z,16.53
2023-03-13T22:13:42.704Z,16.07
2023-03-13T22:16:11.688Z,16.33
2023-03-13T22:18:40.194Z,13.13
2023-03-13T22:21:07.221Z,12.60
2023-03-13T22:23:34.260Z,13.27
2023-03-13T22:26:01.408Z,13.53
2023-03-13T22:28:28.577Z,13.40
2023-03-13T22:30:55.548Z,15.07
2023-03-13T22:33:22.680Z,13.60
2023-03-13T22:35:54.633Z,14.43
2023-03-13T22:38:22.080Z,15.00
2023-03-13T22:40:58.045Z,13.03
2023-03-13T22:43:25.142Z,14.43
2023-03-13T22:45:52.242Z,15.63
2023-03-13T22:48:19.325Z,16.17
2023-03-13T22:50:46.980Z,16.50
2023-03-13T22:53:14.370Z,18.00
2023-03-13T22:55:41.358Z,19.10
2023-03-13T22:58:08.505Z,19.50
2023-03-13T23:00:35.464Z,22.93
2023-03-13T23:03:02.420Z,17.97
2023-03-13T23:05:29.607Z,19.00
2023-03-13T23:07:56.608Z,19.73
2023-03-13T23:10:23.584Z,18.80
2023-03-13T23:12:50.657Z,16.93
2023-03-13T23:15:17.722Z,15.77
2023-03-13T23:17:44.681Z,16.30
2023-03-13T23:20:13.551Z,19.10
2023-03-13T23:22:44.196Z,15.57
2023-03-13T23:25:12.912Z,15.53
2023-03-13T23:27:41.496Z,16.93
2023-03-13T23:30:14.132Z,18.23
2023-03-13T23:32:45.583Z,19.50
2023-03-13T23:35:13.695Z,16.20
2023-03-13T23:37:40.665Z,16.93
2023-03-13T23:40:10.620Z,21.63
2023-03-13T23:42:38.222Z,17.07
2023-03-13T23:45:06.813Z,16.33
2023-03-13T23:47:34.217Z,19.00
2023-03-13T23:50:01.216Z,16.53
2023-03-13T23:52:28.306Z,20.00
2023-03-13T23:54:55.319Z,16.13
2023-03-13T23:57:22.393Z,19.97
2023-03-13T23:59:49.315Z,16.47
